Kittery, ME

1:54 AM EDT on September 15, 2014 (GMT -0400)
KPV | Change Station
CLOSE
Current Station
Personal Weather Station
Location: Kittery Point, ME
Elevation: 40 ft
Nearby Weather Stations

Elev 40 ft 43.08 °N, 70.71 °W | Updated 18 seconds ago

Partly Cloudy
Partly Cloudy
48.0 °F
Feels Like 48 °F
N
0.0
Wind Variable Wind from NNE
Gusts 0.0 mph

Today
High -- | Low -- °F
--% Chance of Precip.
Yesterday
High -- | Low -- °F
Precip. -- in
6:22 AM 6:52 PM
Waning Gibbous, 58% visible
Pressure 30.22 in
Visibility 10.0 miles
Clouds Few 3500 ft
Windchill 48 °F
Dew Point 45 °F
Humidity 88%
Rainfall -999.00 in
Snow Depth Not available.
UV 0 out of 12
Pollen 3.10 out of 12
Ozone Good
Flu Activity Not available.
METAR KPSM 150458Z COR 02004KT 10SM FEW035 09/05 A3021 RMK AO2A SLP234 T00940054 401840089 COR 0510

More Conditions Fewer Conditions

Pressure 30.22 in
Visibility 10.0 miles
Clouds Few 3500 ft
Windchill 48 °F
Dew Point 45 °F
Humidity 88%
Rainfall -999.00 in
Snow Depth Not available.
UV 0 out of 12
Pollen 3.10 out of 12
Ozone Good
Flu Activity Not available.
METAR KPSM 150458Z COR 02004KT 10SM FEW035 09/05 A3021 RMK AO2A SLP234 T00940054 401840089 COR 0510

More Conditions Fewer Conditions

10-Day Weather Forecast

Almanac

Astronomy

Sep. 15, 2014 Rise Set
Actual Time 6:22 AM EDT 6:52 PM EDT
Civil Twilight 5:53 AM EDT 7:21 PM EDT
Nautical Twilight 5:20 AM EDT 7:55 PM EDT
Astronomical Twilight 4:45 AM EDT 8:29 PM EDT
Moon 11:24 PM EDT 1:29 PM EDT
Length of Visible Light 13h 27m
Length of Day
12h 30m
Tomorrow will be 2m 53s shorter.
Waning Gibbous, 58% of the Moon is Illuminated
Today
Waning Gibbous
Sep 15
Last Quarter
Sep 24
New
Oct 1
First Quarter
Oct 8
Full

Today's Extremes

State Highs State Lows

Community

WunderPhotos

Upload Photos

1,753,416 photos uploaded!

WunderBlogs® & News

Nearby

Air Quality

  Air Quality AQ Index Pollutant
Yesterday Good
OZONE
Current Good
OZONE
Monday Good
OZONE
Monday Good
PM2.5
Tuesday Good
OZONE
Tuesday Good
PM2.5

Snow Depth

Station Depth Elevation
No new snow has been reported.

Earthquake Activity

City Distance Mag. Time & Date
No recent earthquake activity has been reported nearby.
Minimum magnitude displayed is 2.5.

Coastal Water Temperatures

Place Temperature
Wells, ME 60.1 °F
Portland, ME 60.1 °F

Nearby Weather Stations